createdAt,value
2022-12-04T00:00:11.737Z,56.33
2022-12-04T00:02:38.082Z,66.22
2022-12-04T00:05:04.813Z,61.53
2022-12-04T00:07:31.399Z,66.05
2022-12-04T00:09:57.750Z,56.33
2022-12-04T00:12:24.137Z,61.67
2022-12-04T00:15:23.898Z,53.88
2022-12-04T00:17:36.747Z,58.55
2022-12-04T00:20:03.674Z,62.20
2022-12-04T00:22:30.040Z,50.70
2022-12-04T00:24:56.331Z,61.38
2022-12-04T00:27:22.603Z,62.67
2022-12-04T00:29:48.949Z,55.40
2022-12-04T00:32:15.280Z,67.30
2022-12-04T00:34:41.555Z,42.33
2022-12-04T00:37:07.843Z,58.28
2022-12-04T00:39:34.161Z,66.45
2022-12-04T00:42:00.459Z,66.20
2022-12-04T00:44:27.274Z,61.97
2022-12-04T00:46:53.542Z,54.72
2022-12-04T00:49:19.831Z,62.17
2022-12-04T00:51:46.204Z,54.70
2022-12-04T00:54:12.540Z,54.63
2022-12-04T00:56:39.018Z,55.05
2022-12-04T00:59:05.930Z,62.58
2022-12-04T01:01:32.399Z,59.38
2022-12-04T01:03:58.827Z,50.67
2022-12-04T01:06:26.490Z,58.63
2022-12-04T01:08:53.812Z,53.75
2022-12-04T01:11:20.957Z,58.80
2022-12-04T01:13:47.492Z,49.83
2022-12-04T01:16:21.520Z,51.45
2022-12-04T01:18:48.203Z,61.90
2022-12-04T01:21:14.552Z,65.85
2022-12-04T01:23:41.051Z,58.67
2022-12-04T01:26:07.754Z,29.67
2022-12-04T01:28:34.260Z,59.65
2022-12-04T01:31:01.796Z,48.50
2022-12-04T01:33:28.869Z,57.85
2022-12-04T01:35:56.091Z,63.10
2022-12-04T01:38:22.516Z,69.75
2022-12-04T01:40:49.371Z,60.55
2022-12-04T01:43:16.365Z,60.40
2022-12-04T01:45:44.001Z,42.78
2022-12-04T01:48:10.393Z,58.95
2022-12-04T01:50:38.004Z,48.25
2022-12-04T01:53:04.360Z,56.80
2022-12-04T01:55:31.157Z,69.68
2022-12-04T01:57:58.647Z,52.20
2022-12-04T02:00:25.152Z,59.58
2022-12-04T02:02:51.533Z,48.00
2022-12-04T02:05:20.563Z,59.65
2022-12-04T02:07:48.434Z,62.53
2022-12-04T02:10:17.131Z,57.55
2022-12-04T02:12:43.512Z,60.00
2022-12-04T02:15:15.606Z,52.35
2022-12-04T02:17:55.633Z,67.55
2022-12-04T02:20:24.729Z,59.78
2022-12-04T02:22:57.072Z,56.83
2022-12-04T02:25:26.252Z,60.95
2022-12-04T02:28:00.082Z,70.07
2022-12-04T02:30:27.460Z,61.03
2022-12-04T02:33:15.073Z,63.00
2022-12-04T02:35:44.457Z,50.17
2022-12-04T02:38:10.782Z,59.97
2022-12-04T02:40:48.514Z,63.50
2022-12-04T02:43:14.850Z,56.95
2022-12-04T02:45:51.239Z,56.92
2022-12-04T02:48:19.558Z,58.40
2022-12-04T02:50:48.206Z,61.10
2022-12-04T02:53:19.585Z,56.25
2022-12-04T02:55:57.396Z,64.82
2022-12-04T02:58:26.573Z,62.08
2022-12-04T03:00:54.196Z,62.58
2022-12-04T03:03:23.210Z,56.85
2022-12-04T03:06:02.281Z,61.65
2022-12-04T03:08:30.713Z,62.20
2022-12-04T03:11:00.310Z,62.85
2022-12-04T03:13:30.693Z,57.88
2022-12-04T03:16:01.956Z,69.43
2022-12-04T03:18:48.651Z,64.10
2022-12-04T03:21:17.643Z,63.17
2022-12-04T03:23:46.380Z,64.10
2022-12-04T03:26:17.655Z,57.95
2022-12-04T03:28:49.125Z,65.82
2022-12-04T03:31:18.882Z,63.63
2022-12-04T03:33:47.141Z,66.38
2022-12-04T03:36:18.028Z,59.22
2022-12-04T03:38:47.941Z,60.47
2022-12-04T03:41:24.264Z,59.50
2022-12-04T03:43:52.125Z,67.00
2022-12-04T03:46:27.900Z,66.00
2022-12-04T03:48:57.834Z,65.47
2022-12-04T03:51:26.982Z,45.35
2022-12-04T03:53:58.451Z,57.15
2022-12-04T03:56:26.770Z,59.15
2022-12-04T03:58:57.081Z,63.63
2022-12-04T04:01:27.077Z,53.85
2022-12-04T04:03:53.814Z,59.28
2022-12-04T04:06:32.518Z,55.13
2022-12-04T04:09:02.513Z,67.15
2022-12-04T04:11:34.242Z,64.53
2022-12-04T04:14:25.106Z,48.55
2022-12-04T04:17:13.505Z,60.38
2022-12-04T04:20:00.848Z,63.83
2022-12-04T04:22:45.692Z,65.85
2022-12-04T04:25:13.928Z,61.85
2022-12-04T04:27:40.229Z,62.05
2022-12-04T04:30:07.472Z,60.08
2022-12-04T04:32:33.785Z,60.65
2022-12-04T04:35:08.936Z,65.03
2022-12-04T04:37:40.529Z,60.72
2022-12-04T04:40:13.407Z,58.63
2022-12-04T04:45:08.292Z,46.95
2022-12-04T04:47:40.859Z,63.45
2022-12-04T04:50:09.212Z,61.45
2022-12-04T04:52:37.485Z,45.28
2022-12-04T04:55:04.429Z,56.60
2022-12-04T04:57:33.876Z,72.95
2022-12-04T05:00:00.963Z,72.35
2022-12-04T05:02:27.415Z,55.78
2022-12-04T05:04:54.480Z,66.93
2022-12-04T05:07:20.830Z,62.80
2022-12-04T05:09:47.174Z,67.10
2022-12-04T05:12:13.495Z,54.63
2022-12-04T05:14:39.805Z,41.97
2022-12-04T05:17:12.132Z,63.95
2022-12-04T05:22:22.056Z,63.72
2022-12-04T05:24:48.474Z,58.90
2022-12-04T05:27:15.027Z,65.95
2022-12-04T05:29:41.361Z,63.03
2022-12-04T05:32:07.729Z,60.00
2022-12-04T05:34:33.998Z,58.17
2022-12-04T05:37:00.413Z,64.03
2022-12-04T05:39:27.472Z,57.10
2022-12-04T05:41:53.810Z,60.08
2022-12-04T05:44:20.339Z,59.58
2022-12-04T05:46:46.769Z,66.93
2022-12-04T05:49:13.127Z,57.40
2022-12-04T05:51:39.405Z,55.80
2022-12-04T05:54:05.737Z,68.57
2022-12-04T05:56:32.083Z,56.53
2022-12-04T05:58:58.445Z,51.65
2022-12-04T06:01:25.105Z,58.35
2022-12-04T06:03:51.626Z,60.20
2022-12-04T06:06:22.800Z,50.15
2022-12-04T06:08:53.025Z,62.10
2022-12-04T06:11:21.012Z,58.08
2022-12-04T06:13:47.575Z,54.85
2022-12-04T06:16:18.556Z,62.72
2022-12-04T06:18:45.174Z,53.20
2022-12-04T06:21:11.512Z,42.65
2022-12-04T06:23:37.944Z,51.55
2022-12-04T06:26:07.173Z,45.05
2022-12-04T06:28:34.501Z,66.00
2022-12-04T06:31:04.926Z,41.92
2022-12-04T06:33:31.614Z,52.25
2022-12-04T06:35:59.007Z,66.07
2022-12-04T06:38:25.321Z,58.88
2022-12-04T06:40:51.656Z,59.22
2022-12-04T06:43:17.944Z,50.08
2022-12-04T06:45:44.359Z,60.38
2022-12-04T06:48:10.671Z,51.40
2022-12-04T06:50:36.982Z,44.92
2022-12-04T06:53:08.124Z,53.67
2022-12-04T06:55:34.995Z,54.03
2022-12-04T06:58:01.288Z,66.20
2022-12-04T07:00:27.637Z,54.80
2022-12-04T07:02:53.982Z,64.20
2022-12-04T07:05:20.310Z,62.80
2022-12-04T07:07:46.615Z,55.10
2022-12-04T07:10:12.972Z,63.97
2022-12-04T07:12:39.257Z,51.50
2022-12-04T07:15:05.817Z,58.67
2022-12-04T07:17:32.164Z,64.72
2022-12-04T07:19:58.702Z,40.17
2022-12-04T07:22:26.235Z,66.80
2022-12-04T07:24:52.607Z,49.33
2022-12-04T07:27:18.977Z,58.85
2022-12-04T07:29:45.257Z,60.17
2022-12-04T07:32:11.550Z,56.40
2022-12-04T07:34:37.929Z,68.18
2022-12-04T07:37:04.277Z,63.47
2022-12-04T07:39:30.643Z,70.90
2022-12-04T07:41:57.022Z,55.20
2022-12-04T07:44:23.397Z,43.70
2022-12-04T07:46:49.679Z,47.38
2022-12-04T07:49:16.286Z,56.72
2022-12-04T07:51:42.614Z,61.33
2022-12-04T07:54:09.341Z,67.93
2022-12-04T07:56:35.683Z,37.72
2022-12-04T07:59:02.287Z,57.50
2022-12-04T08:01:28.758Z,59.67
2022-12-04T08:03:55.805Z,45.60
2022-12-04T08:06:22.941Z,53.17
2022-12-04T08:08:50.124Z,51.40
2022-12-04T08:11:17.894Z,43.88
2022-12-04T08:13:44.570Z,69.55
2022-12-04T08:16:11.637Z,52.92
2022-12-04T08:18:38.145Z,56.15
2022-12-04T08:21:08.695Z,59.47
2022-12-04T08:23:35.304Z,60.13
2022-12-04T08:26:02.072Z,65.25
2022-12-04T08:28:28.743Z,65.13
2022-12-04T08:30:55.196Z,46.85
2022-12-04T08:33:21.821Z,51.42
2022-12-04T08:35:48.165Z,47.67
2022-12-04T08:38:14.437Z,41.47
2022-12-04T08:40:40.865Z,56.83
2022-12-04T08:43:07.297Z,61.38
2022-12-04T08:45:33.881Z,63.80
2022-12-04T08:48:00.229Z,57.97
2022-12-04T08:50:27.223Z,49.35
2022-12-04T08:52:53.639Z,45.78
2022-12-04T08:55:19.997Z,64.10
2022-12-04T08:57:46.316Z,59.10
2022-12-04T09:00:12.940Z,55.08
2022-12-04T09:02:39.228Z,52.22
2022-12-04T09:05:05.598Z,58.85
2022-12-04T09:07:31.984Z,47.28
2022-12-04T09:09:58.710Z,54.42
2022-12-04T09:12:25.236Z,61.03
2022-12-04T09:14:51.550Z,57.75
2022-12-04T09:17:17.997Z,44.92
2022-12-04T09:19:44.404Z,58.47
2022-12-04T09:22:11.005Z,56.05
2022-12-04T09:24:37.454Z,46.58
2022-12-04T09:27:03.838Z,56.72
2022-12-04T09:29:30.180Z,58.97
2022-12-04T09:31:56.661Z,46.33
2022-12-04T09:34:24.217Z,55.15
2022-12-04T09:36:50.670Z,35.58
2022-12-04T09:39:17.031Z,61.08
2022-12-04T09:41:58.582Z,55.25
2022-12-04T09:44:29.486Z,50.13
2022-12-04T09:47:00.614Z,51.20
2022-12-04T09:49:39.037Z,54.30
2022-12-04T09:52:22.121Z,53.28
2022-12-04T09:54:50.037Z,41.42
2022-12-04T09:57:25.382Z,48.40
2022-12-04T09:59:52.508Z,44.35
2022-12-04T10:02:28.691Z,57.08
2022-12-04T10:04:55.830Z,46.65
2022-12-04T10:07:22.229Z,54.20
2022-12-04T10:09:50.542Z,49.80
2022-12-04T10:12:37.738Z,52.95
2022-12-04T10:15:11.267Z,48.00
2022-12-04T10:17:44.992Z,46.70
2022-12-04T10:20:30.138Z,51.10
2022-12-04T10:23:14.953Z,36.03
2022-12-04T10:25:41.813Z,37.10
2022-12-04T10:28:26.964Z,47.83
2022-12-04T10:30:55.101Z,47.08
2022-12-04T10:33:36.817Z,36.28
2022-12-04T10:36:04.243Z,39.33
2022-12-04T10:38:35.244Z,46.58
2022-12-04T10:41:13.318Z,29.75
2022-12-04T10:43:57.709Z,34.90
2022-12-04T10:46:25.483Z,36.38
2022-12-04T10:48:54.578Z,41.58
2022-12-04T10:51:22.517Z,34.83
2022-12-04T10:53:50.035Z,35.03
2022-12-04T10:56:23.729Z,25.35
2022-12-04T10:58:56.985Z,28.98
2022-12-04T11:01:23.828Z,28.42
2022-12-04T11:04:10.258Z,36.92
2022-12-04T11:06:36.629Z,38.45
2022-12-04T11:09:03.600Z,39.78
2022-12-04T11:11:31.383Z,33.85
2022-12-04T11:14:06.829Z,24.85
2022-12-04T11:16:37.879Z,21.77
2022-12-04T11:19:18.094Z,34.67
2022-12-04T11:21:44.605Z,29.60
2022-12-04T11:24:29.402Z,28.05
2022-12-04T11:26:56.589Z,21.48
2022-12-04T11:29:26.124Z,36.65
2022-12-04T11:31:53.360Z,32.60
2022-12-04T11:34:24.421Z,36.63
2022-12-04T11:36:55.959Z,31.30
2022-12-04T11:39:22.339Z,21.70
2022-12-04T11:41:58.572Z,27.25
2022-12-04T11:44:29.174Z,25.58
2022-12-04T11:46:57.069Z,26.75
2022-12-04T11:49:24.714Z,27.30
2022-12-04T11:52:01.821Z,24.85
2022-12-04T11:54:34.154Z,26.70
2022-12-04T11:57:08.037Z,24.77
2022-12-04T11:59:52.485Z,20.45
2022-12-04T12:02:30.892Z,21.15
2022-12-04T12:04:57.262Z,23.23
2022-12-04T12:07:32.622Z,24.25
2022-12-04T12:10:07.893Z,14.98
2022-12-04T12:12:46.718Z,28.25
2022-12-04T12:15:23.465Z,18.60
2022-12-04T12:17:49.744Z,24.33
2022-12-04T12:20:25.138Z,18.15
2022-12-04T12:22:51.405Z,24.35
2022-12-04T12:25:26.546Z,22.90
2022-12-04T12:28:10.398Z,28.92
2022-12-04T12:30:42.684Z,21.60
2022-12-04T12:33:14.799Z,22.65
2022-12-04T12:35:47.006Z,27.10
2022-12-04T12:38:18.340Z,20.67
2022-12-04T12:40:49.990Z,15.82
2022-12-04T12:43:20.917Z,25.02
2022-12-04T12:45:50.152Z,21.23
2022-12-04T12:48:28.548Z,16.65
2022-12-04T12:51:14.893Z,21.20
2022-12-04T12:53:47.894Z,25.00
2022-12-04T12:56:14.339Z,20.80
2022-12-04T12:58:45.941Z,27.35
2022-12-04T13:01:15.206Z,18.58
2022-12-04T13:03:54.965Z,13.75
2022-12-04T13:06:23.502Z,16.83
2022-12-04T13:08:49.761Z,14.60
2022-12-04T13:11:17.916Z,17.05
2022-12-04T13:13:48.824Z,21.83
2022-12-04T13:16:33.857Z,16.92
2022-12-04T13:19:06.574Z,19.42
2022-12-04T13:21:32.964Z,22.58
2022-12-04T13:23:59.233Z,22.85
2022-12-04T13:26:49.276Z,16.90
2022-12-04T13:29:34.981Z,14.07
2022-12-04T13:32:26.810Z,21.95
2022-12-04T13:35:03.851Z,23.27
2022-12-04T13:37:47.281Z,24.48
2022-12-04T13:40:25.513Z,20.45
2022-12-04T13:42:51.909Z,14.20
2022-12-04T13:45:28.810Z,23.20
2022-12-04T13:47:59.291Z,24.08
2022-12-04T13:50:32.740Z,18.88
2022-12-04T13:53:00.736Z,26.55
2022-12-04T13:55:37.286Z,22.90
2022-12-04T13:58:03.601Z,23.23
2022-12-04T14:00:31.738Z,16.08
2022-12-04T14:03:00.141Z,19.70
2022-12-04T14:05:28.026Z,27.13
2022-12-04T14:08:06.977Z,15.70
2022-12-04T14:10:36.320Z,20.00
2022-12-04T14:13:17.843Z,26.30
2022-12-04T14:15:44.252Z,26.52
2022-12-04T14:18:10.572Z,23.40
2022-12-04T14:20:37.303Z,31.83
2022-12-04T14:23:08.132Z,32.28
2022-12-04T14:25:36.624Z,35.78
2022-12-04T14:28:13.359Z,30.50
2022-12-04T14:30:40.492Z,29.58
2022-12-04T14:33:15.588Z,32.42
2022-12-04T14:35:47.762Z,30.40
2022-12-04T14:38:20.249Z,34.72
2022-12-04T14:40:51.793Z,45.70
2022-12-04T14:43:19.925Z,37.97
2022-12-04T14:45:54.717Z,38.05
2022-12-04T14:48:40.064Z,20.33
2022-12-04T14:51:18.845Z,24.10
2022-12-04T14:53:59.972Z,29.38
2022-12-04T14:56:51.916Z,47.08
2022-12-04T14:59:20.058Z,28.83
2022-12-04T15:01:48.214Z,37.45
2022-12-04T15:04:14.706Z,36.70
2022-12-04T15:06:41.212Z,34.40
2022-12-04T15:09:34.890Z,24.80
2022-12-04T15:12:19.640Z,36.22
2022-12-04T15:14:47.245Z,39.92
2022-12-04T15:17:15.539Z,46.83
2022-12-04T15:19:42.028Z,41.03
2022-12-04T15:22:11.923Z,47.95
2022-12-04T15:24:38.761Z,34.83
2022-12-04T15:27:06.916Z,40.67
2022-12-04T15:29:34.742Z,47.53
2022-12-04T15:32:02.931Z,33.05
2022-12-04T15:34:41.724Z,44.50
2022-12-04T15:37:19.595Z,37.78
2022-12-04T15:39:46.153Z,28.50
2022-12-04T15:42:16.731Z,33.05
2022-12-04T15:44:52.433Z,45.05
2022-12-04T15:47:23.398Z,37.80
2022-12-04T15:49:49.762Z,45.92
2022-12-04T15:52:17.901Z,45.88
2022-12-04T15:54:48.255Z,44.65
2022-12-04T15:57:25.310Z,50.25
2022-12-04T15:59:51.813Z,45.28
2022-12-04T16:02:23.371Z,38.42
2022-12-04T16:04:49.645Z,35.88
2022-12-04T16:07:21.712Z,41.97
2022-12-04T16:09:52.293Z,39.77
2022-12-04T16:12:23.535Z,36.58
2022-12-04T16:14:51.953Z,43.00
2022-12-04T16:17:18.978Z,28.98
2022-12-04T16:19:45.318Z,44.22
2022-12-04T16:22:19.321Z,34.10
2022-12-04T16:24:46.765Z,36.20
2022-12-04T16:27:14.627Z,32.15
2022-12-04T16:29:41.142Z,28.80
2022-12-04T16:32:10.983Z,19.90
2022-12-04T16:34:37.412Z,39.10
2022-12-04T16:37:10.245Z,44.10
2022-12-04T16:42:14.105Z,42.55
2022-12-04T16:47:06.791Z,41.38
2022-12-04T16:49:33.221Z,40.13
2022-12-04T16:51:59.512Z,37.88
2022-12-04T16:54:25.838Z,37.25
2022-12-04T16:56:52.361Z,32.17
2022-12-04T16:59:18.692Z,36.28
2022-12-04T17:01:47.333Z,40.67
2022-12-04T17:04:14.342Z,39.20
2022-12-04T17:06:40.781Z,43.67
2022-12-04T17:09:07.169Z,36.15
2022-12-04T17:11:33.493Z,39.50
2022-12-04T17:13:59.797Z,35.65
2022-12-04T17:16:28.871Z,26.27
2022-12-04T17:18:55.225Z,29.00
2022-12-04T17:21:21.535Z,42.30
2022-12-04T17:23:48.044Z,34.35
2022-12-04T17:26:14.791Z,22.08
2022-12-04T17:28:41.208Z,29.70
2022-12-04T17:31:18.188Z,34.17
2022-12-04T17:33:45.186Z,36.53
2022-12-04T17:36:12.659Z,24.85
2022-12-04T17:38:40.724Z,23.10
2022-12-04T17:41:07.790Z,26.33
2022-12-04T17:43:34.340Z,35.25
2022-12-04T17:46:01.087Z,34.42
2022-12-04T17:48:28.700Z,31.58
2022-12-04T17:51:08.976Z,31.52
2022-12-04T17:53:35.661Z,21.50
2022-12-04T17:56:09.821Z,23.65
2022-12-04T17:58:36.212Z,21.63
2022-12-04T18:01:06.391Z,19.02
2022-12-04T18:03:32.997Z,25.90
2022-12-04T18:05:59.386Z,29.40
2022-12-04T18:08:28.813Z,26.50
2022-12-04T18:10:56.246Z,34.88
2022-12-04T18:13:22.615Z,29.13
2022-12-04T18:15:48.912Z,23.15
2022-12-04T18:18:15.235Z,28.92
2022-12-04T18:20:42.276Z,32.90
2022-12-04T18:23:08.948Z,38.78
2022-12-04T18:25:35.261Z,30.02
2022-12-04T18:28:01.635Z,41.08
2022-12-04T18:30:28.057Z,35.15
2022-12-04T18:32:54.717Z,37.90
2022-12-04T18:35:21.053Z,41.85
2022-12-04T18:37:47.650Z,39.30
2022-12-04T18:40:14.703Z,49.17
2022-12-04T18:42:41.064Z,35.70
2022-12-04T18:45:07.737Z,44.65
2022-12-04T18:47:36.419Z,33.90
2022-12-04T18:50:02.761Z,29.52
2022-12-04T18:52:29.122Z,42.80
2022-12-04T18:54:55.485Z,56.33
2022-12-04T18:57:21.794Z,48.30
2022-12-04T18:59:48.116Z,53.03
2022-12-04T19:02:14.488Z,39.30
2022-12-04T19:04:40.872Z,54.53
2022-12-04T19:07:07.147Z,59.28
2022-12-04T19:10:09.520Z,31.38
2022-12-04T19:12:19.738Z,39.60
2022-12-04T19:14:46.026Z,49.08
2022-12-04T19:17:12.369Z,52.72
2022-12-04T19:19:38.753Z,48.80
2022-12-04T19:22:05.127Z,65.97
2022-12-04T19:24:31.487Z,60.67
2022-12-04T19:26:57.843Z,38.88
2022-12-04T19:29:24.262Z,53.47
2022-12-04T19:31:54.654Z,59.75
2022-12-04T19:34:24.206Z,43.28
2022-12-04T19:36:51.086Z,45.53
2022-12-04T19:39:17.448Z,62.45
2022-12-04T19:41:43.853Z,63.92
2022-12-04T19:44:40.118Z,53.45
2022-12-04T19:46:56.595Z,55.30
2022-12-04T19:49:23.025Z,61.53
2022-12-04T19:51:49.539Z,59.65
2022-12-04T19:54:16.176Z,54.05
2022-12-04T19:56:45.900Z,51.20
2022-12-04T19:59:12.460Z,57.42
2022-12-04T20:01:38.841Z,50.40
2022-12-04T20:04:06.209Z,53.75
2022-12-04T20:06:40.587Z,47.35
2022-12-04T20:09:09.148Z,55.63
2022-12-04T20:11:35.792Z,52.92
2022-12-04T20:14:03.946Z,48.83
2022-12-04T20:16:32.110Z,52.28
2022-12-04T20:18:59.052Z,48.60
2022-12-04T20:21:30.150Z,44.80
2022-12-04T20:23:57.751Z,55.55
2022-12-04T20:26:25.309Z,44.25
2022-12-04T20:28:51.909Z,48.10
2022-12-04T20:31:31.622Z,52.20
2022-12-04T20:33:59.005Z,55.33
2022-12-04T20:36:26.482Z,51.53
2022-12-04T20:38:55.231Z,51.47
2022-12-04T20:41:21.728Z,47.35
2022-12-04T20:43:48.141Z,57.35
2022-12-04T20:46:19.201Z,55.10
2022-12-04T20:48:49.169Z,40.53
2022-12-04T20:51:19.622Z,60.67
2022-12-04T20:53:46.492Z,54.85
2022-12-04T20:56:13.071Z,53.05
2022-12-04T20:58:40.650Z,58.33
2022-12-04T21:01:17.569Z,55.85
2022-12-04T21:03:45.299Z,53.67
2022-12-04T21:06:15.228Z,54.45
2022-12-04T21:08:56.324Z,56.75
2022-12-04T21:11:26.985Z,55.95
2022-12-04T21:14:12.862Z,60.08
2022-12-04T21:16:39.880Z,60.65
2022-12-04T21:19:07.131Z,56.00
2022-12-04T21:21:33.720Z,49.20
2022-12-04T21:24:00.008Z,49.40
2022-12-04T21:26:31.658Z,49.33
2022-12-04T21:28:58.384Z,36.50
2022-12-04T21:31:26.903Z,54.20
2022-12-04T21:33:53.345Z,46.45
2022-12-04T21:36:19.768Z,44.05
2022-12-04T21:38:46.080Z,58.95
2022-12-04T21:41:35.192Z,41.85
2022-12-04T21:44:04.890Z,50.97
2022-12-04T21:46:32.092Z,45.45
2022-12-04T21:48:58.933Z,53.28
2022-12-04T21:51:48.752Z,55.88
2022-12-04T21:54:12.129Z,61.47
2022-12-04T21:56:38.537Z,59.83
2022-12-04T21:59:04.928Z,51.65
2022-12-04T22:01:31.412Z,56.97
2022-12-04T22:03:57.851Z,51.25
2022-12-04T22:06:25.577Z,53.58
2022-12-04T22:08:51.971Z,55.92
2022-12-04T22:11:19.196Z,50.53
2022-12-04T22:13:45.570Z,55.75
2022-12-04T22:16:13.304Z,51.65
2022-12-04T22:18:39.994Z,49.00
2022-12-04T22:21:07.941Z,49.25
2022-12-04T22:23:34.463Z,52.45
2022-12-04T22:26:07.808Z,45.38
2022-12-04T22:28:34.249Z,54.33
2022-12-04T22:31:05.083Z,58.83
2022-12-04T22:33:31.893Z,51.22
2022-12-04T22:36:05.392Z,52.03
2022-12-04T22:38:31.752Z,49.88
2022-12-04T22:41:02.088Z,40.38
2022-12-04T22:43:29.449Z,51.20
2022-12-04T22:45:55.922Z,48.88
2022-12-04T22:48:22.197Z,51.95
2022-12-04T22:50:57.437Z,49.53
2022-12-04T22:53:24.322Z,48.83
2022-12-04T22:55:50.638Z,49.58
2022-12-04T22:58:16.964Z,43.17
2022-12-04T23:00:43.301Z,43.97
2022-12-04T23:03:09.637Z,44.08
2022-12-04T23:05:36.359Z,49.42
2022-12-04T23:08:02.936Z,41.55
2022-12-04T23:10:29.278Z,39.08
2022-12-04T23:12:55.619Z,45.75
2022-12-04T23:15:22.169Z,46.38
2022-12-04T23:17:48.508Z,49.10
2022-12-04T23:20:14.836Z,29.65
2022-12-04T23:22:41.127Z,38.05
2022-12-04T23:25:07.645Z,42.15
2022-12-04T23:27:34.228Z,33.28
2022-12-04T23:30:00.525Z,43.70
2022-12-04T23:32:26.783Z,40.40
2022-12-04T23:34:53.175Z,35.63
2022-12-04T23:37:19.500Z,44.15
2022-12-04T23:39:45.817Z,34.95
2022-12-04T23:42:12.088Z,42.05
2022-12-04T23:44:38.454Z,44.28
2022-12-04T23:47:04.892Z,44.58
2022-12-04T23:49:31.300Z,36.58
2022-12-04T23:51:57.621Z,41.38
2022-12-04T23:54:23.969Z,40.58
2022-12-04T23:56:50.310Z,39.05
2022-12-04T23:59:16.582Z,36.08
